88FD weather

Bethesda Memorial Hospital Heliport
Boynton Beach, Florida, United States

Public forecast

Using degrees Fahrenheit for public forecast. Weather courtesy of forecast.io.

Closest aviation weather report (METAR) to Bethesda Memorial Hospital Heliport

Closest report is Boca Raton Airport, 7.8 nm (14.5 km) SSW. Retrieved 2019/10/14 13:47 UTC (1 hour ago):

KBCT 141347Z 00000KT 10SM SCT021 28/23 A3007

Closest aviation forecast (TAF) to Bethesda Memorial Hospital Heliport

Closest forecast is Palm Beach International Airport, 10.8 nm (20.1 km) N. Retrieved 2019/10/14 12:26 UTC (3 hours ago):

TAF KPBI 141120Z 1412/1512 07007KT P6SM SCT020 BKN030 FM141500 10011KT P6SM SCT025 BKN035 FM150000 09006KT P6SM FEW030 SCT060